sensor_id;sensor_type;location;lat;lon;timestamp;pressure;altitude;pressure_sealevel;temperature;humidity
64841;BME280;51307;52.162;7.560;2023-05-01T00:00:41;101360.56;;;11.18;49.19
64841;BME280;51307;52.162;7.560;2023-05-01T00:03:07;101348.72;;;11.21;49.04
64841;BME280;51307;52.162;7.560;2023-05-01T00:05:32;101350.69;;;11.19;49.63
64841;BME280;51307;52.162;7.560;2023-05-01T00:08:00;101339.81;;;11.02;49.59
64841;BME280;51307;52.162;7.560;2023-05-01T00:10:25;101344.19;;;11.03;49.75
64841;BME280;51307;52.162;7.560;2023-05-01T00:12:51;101341.53;;;10.93;49.98
64841;BME280;51307;52.162;7.560;2023-05-01T00:15:16;101332.50;;;10.94;49.85
64841;BME280;51307;52.162;7.560;2023-05-01T00:17:42;101331.19;;;10.81;50.16
64841;BME280;51307;52.162;7.560;2023-05-01T00:20:08;101321.00;;;10.84;49.78
64841;BME280;51307;52.162;7.560;2023-05-01T00:22:33;101326.22;;;10.58;49.95
64841;BME280;51307;52.162;7.560;2023-05-01T00:24:59;101318.59;;;10.63;50.62
64841;BME280;51307;52.162;7.560;2023-05-01T00:27:25;101313.81;;;10.57;50.46
64841;BME280;51307;52.162;7.560;2023-05-01T00:29:50;101309.03;;;10.51;50.69
64841;BME280;51307;52.162;7.560;2023-05-01T00:32:16;101310.16;;;10.58;50.24
64841;BME280;51307;52.162;7.560;2023-05-01T00:34:41;101304.56;;;10.51;50.21
64841;BME280;51307;52.162;7.560;2023-05-01T00:37:07;101295.00;;;10.49;50.52
64841;BME280;51307;52.162;7.560;2023-05-01T00:39:33;101297.47;;;10.60;50.38
64841;BME280;51307;52.162;7.560;2023-05-01T00:41:59;101296.94;;;10.56;49.94
64841;BME280;51307;52.162;7.560;2023-05-01T00:44:24;101294.00;;;10.50;50.14
64841;BME280;51307;52.162;7.560;2023-05-01T00:46:50;101289.34;;;10.52;50.46
64841;BME280;51307;52.162;7.560;2023-05-01T00:49:15;101284.16;;;10.40;50.58
64841;BME280;51307;52.162;7.560;2023-05-01T00:51:42;101280.81;;;10.29;50.81
64841;BME280;51307;52.162;7.560;2023-05-01T00:54:08;101269.38;;;10.36;50.83
64841;BME280;51307;52.162;7.560;2023-05-01T00:56:34;101271.59;;;10.41;50.28
64841;BME280;51307;52.162;7.560;2023-05-01T00:59:00;101270.63;;;10.42;50.22
64841;BME280;51307;52.162;7.560;2023-05-01T01:01:25;101269.25;;;9.90;51.75
64841;BME280;51307;52.162;7.560;2023-05-01T01:03:51;101270.53;;;9.86;52.18
64841;BME280;51307;52.162;7.560;2023-05-01T01:06:27;101271.66;;;9.84;52.38
64841;BME280;51307;52.162;7.560;2023-05-01T01:12:02;101252.84;;;9.75;52.55
64841;BME280;51307;52.162;7.560;2023-05-01T01:14:41;101258.66;;;10.46;50.71
64841;BME280;51307;52.162;7.560;2023-05-01T01:17:33;101242.66;;;10.36;50.31
64841;BME280;51307;52.162;7.560;2023-05-01T01:22:50;101252.34;;;10.37;50.45
64841;BME280;51307;52.162;7.560;2023-05-01T01:39:15;101231.13;;;10.26;50.54
64841;BME280;51307;52.162;7.560;2023-05-01T01:41:48;101233.13;;;10.24;50.45
64841;BME280;51307;52.162;7.560;2023-05-01T01:44:20;101224.69;;;10.19;50.46
64841;BME280;51307;52.162;7.560;2023-05-01T01:46:52;101219.75;;;10.24;50.55
64841;BME280;51307;52.162;7.560;2023-05-01T01:49:22;101214.25;;;10.25;50.37
64841;BME280;51307;52.162;7.560;2023-05-01T01:51:50;101219.34;;;10.19;50.62
64841;BME280;51307;52.162;7.560;2023-05-01T01:54:22;101219.06;;;10.22;49.98
64841;BME280;51307;52.162;7.560;2023-05-01T01:56:52;101209.38;;;10.11;50.43
64841;BME280;51307;52.162;7.560;2023-05-01T01:59:22;101210.47;;;10.18;50.17
64841;BME280;51307;52.162;7.560;2023-05-01T02:01:50;101203.59;;;10.16;50.22
64841;BME280;51307;52.162;7.560;2023-05-01T02:04:17;101202.09;;;10.03;49.99
64841;BME280;51307;52.162;7.560;2023-05-01T02:06:45;101193.66;;;9.98;50.21
64841;BME280;51307;52.162;7.560;2023-05-01T02:09:18;101188.03;;;10.01;50.18
64841;BME280;51307;52.162;7.560;2023-05-01T02:11:45;101190.22;;;9.88;50.33
64841;BME280;51307;52.162;7.560;2023-05-01T02:14:15;101180.38;;;9.79;50.10
64841;BME280;51307;52.162;7.560;2023-05-01T02:16:43;101182.72;;;9.91;49.99
64841;BME280;51307;52.162;7.560;2023-05-01T02:19:11;101190.47;;;9.95;49.04
64841;BME280;51307;52.162;7.560;2023-05-01T02:21:38;101187.22;;;9.91;48.88
64841;BME280;51307;52.162;7.560;2023-05-01T02:24:06;101183.03;;;9.88;49.41
64841;BME280;51307;52.162;7.560;2023-05-01T02:26:40;101185.69;;;9.88;49.37
64841;BME280;51307;52.162;7.560;2023-05-01T02:29:07;101178.97;;;9.84;49.34
64841;BME280;51307;52.162;7.560;2023-05-01T02:31:33;101175.16;;;9.87;49.63
64841;BME280;51307;52.162;7.560;2023-05-01T02:33:59;101180.38;;;9.79;49.10
64841;BME280;51307;52.162;7.560;2023-05-01T02:36:25;101179.22;;;9.91;49.34
64841;BME280;51307;52.162;7.560;2023-05-01T02:38:53;101177.16;;;9.75;49.65
64841;BME280;51307;52.162;7.560;2023-05-01T02:41:20;101174.53;;;9.65;49.90
64841;BME280;51307;52.162;7.560;2023-05-01T02:43:53;101157.91;;;9.71;50.07
64841;BME280;51307;52.162;7.560;2023-05-01T02:46:24;101153.44;;;9.62;50.23
64841;BME280;51307;52.162;7.560;2023-05-01T02:48:53;101147.53;;;9.58;50.26
64841;BME280;51307;52.162;7.560;2023-05-01T02:51:19;101151.78;;;9.41;50.28
64841;BME280;51307;52.162;7.560;2023-05-01T02:53:48;101139.25;;;9.52;49.79
64841;BME280;51307;52.162;7.560;2023-05-01T02:56:14;101136.91;;;9.49;49.62
64841;BME280;51307;52.162;7.560;2023-05-01T02:58:40;101137.16;;;9.46;50.08
64841;BME280;51307;52.162;7.560;2023-05-01T03:01:06;101133.81;;;9.43;49.84
64841;BME280;51307;52.162;7.560;2023-05-01T03:03:31;101140.41;;;9.49;49.98
64841;BME280;51307;52.162;7.560;2023-05-01T03:05:57;101124.00;;;9.34;50.28
64841;BME280;51307;52.162;7.560;2023-05-01T03:08:23;101126.81;;;9.33;50.50
64841;BME280;51307;52.162;7.560;2023-05-01T03:10:49;101126.22;;;9.39;50.67
64841;BME280;51307;52.162;7.560;2023-05-01T03:13:14;101124.00;;;9.34;50.50
64841;BME280;51307;52.162;7.560;2023-05-01T03:15:41;101125.94;;;9.32;50.53
64841;BME280;51307;52.162;7.560;2023-05-01T03:18:07;101123.13;;;9.43;50.07
64841;BME280;51307;52.162;7.560;2023-05-01T03:20:32;101120.03;;;9.38;49.78
64841;BME280;51307;52.162;7.560;2023-05-01T03:22:58;101114.97;;;9.45;49.64
64841;BME280;51307;52.162;7.560;2023-05-01T03:25:23;101114.41;;;9.51;49.00
64841;BME280;51307;52.162;7.560;2023-05-01T03:27:49;101106.38;;;9.41;48.27
64841;BME280;51307;52.162;7.560;2023-05-01T03:30:15;101107.88;;;9.54;48.17
64841;BME280;51307;52.162;7.560;2023-05-01T03:32:40;101103.44;;;9.45;47.22
64841;BME280;51307;52.162;7.560;2023-05-01T03:35:06;101103.72;;;9.41;47.36
64841;BME280;51307;52.162;7.560;2023-05-01T03:37:32;101106.81;;;9.47;47.46
64841;BME280;51307;52.162;7.560;2023-05-01T03:39:58;101100.19;;;9.51;47.44
64841;BME280;51307;52.162;7.560;2023-05-01T03:42:24;101091.63;;;9.47;47.21
64841;BME280;51307;52.162;7.560;2023-05-01T03:44:49;101101.31;;;9.48;47.13
64841;BME280;51307;52.162;7.560;2023-05-01T03:47:15;101096.13;;;9.47;46.92
64841;BME280;51307;52.162;7.560;2023-05-01T03:49:40;101088.66;;;9.50;47.09
64841;BME280;51307;52.162;7.560;2023-05-01T03:52:08;101087.94;;;9.48;46.72
64841;BME280;51307;52.162;7.560;2023-05-01T03:54:35;101081.78;;;9.48;47.43
64841;BME280;51307;52.162;7.560;2023-05-01T03:57:01;101089.09;;;9.46;47.05
64841;BME280;51307;52.162;7.560;2023-05-01T03:59:26;101080.69;;;9.40;46.57
64841;BME280;51307;52.162;7.560;2023-05-01T04:01:52;101078.50;;;9.54;46.34
64841;BME280;51307;52.162;7.560;2023-05-01T04:04:17;101079.00;;;9.39;46.68
64841;BME280;51307;52.162;7.560;2023-05-01T04:06:43;101078.13;;;9.49;46.38
64841;BME280;51307;52.162;7.560;2023-05-01T04:09:09;101074.06;;;9.45;46.35
64841;BME280;51307;52.162;7.560;2023-05-01T04:11:35;101081.22;;;9.44;46.15
64841;BME280;51307;52.162;7.560;2023-05-01T04:14:00;101078.75;;;9.60;45.38
64841;BME280;51307;52.162;7.560;2023-05-01T04:16:26;101076.13;;;9.51;46.36
64841;BME280;51307;52.162;7.560;2023-05-01T04:18:51;101066.59;;;9.48;46.08
64841;BME280;51307;52.162;7.560;2023-05-01T04:21:17;101069.16;;;9.40;46.32
64841;BME280;51307;52.162;7.560;2023-05-01T04:23:43;101062.09;;;9.49;45.98
64841;BME280;51307;52.162;7.560;2023-05-01T04:26:08;101064.63;;;9.50;45.82
64841;BME280;51307;52.162;7.560;2023-05-01T04:28:34;101072.06;;;9.47;46.05
64841;BME280;51307;52.162;7.560;2023-05-01T04:30:59;101066.31;;;9.51;45.97
64841;BME280;51307;52.162;7.560;2023-05-01T04:33:25;101057.69;;;9.57;46.04
64841;BME280;51307;52.162;7.560;2023-05-01T04:35:52;101058.16;;;9.53;46.11
64841;BME280;51307;52.162;7.560;2023-05-01T04:38:18;101060.53;;;9.56;46.42
64841;BME280;51307;52.162;7.560;2023-05-01T04:40:44;101053.78;;;9.52;46.14
64841;BME280;51307;52.162;7.560;2023-05-01T04:43:10;101055.63;;;9.79;45.68
64841;BME280;51307;52.162;7.560;2023-05-01T04:45:37;101055.44;;;9.63;46.10
64841;BME280;51307;52.162;7.560;2023-05-01T04:48:02;101047.81;;;9.68;45.95
64841;BME280;51307;52.162;7.560;2023-05-01T04:50:28;101057.47;;;9.79;46.20
64841;BME280;51307;52.162;7.560;2023-05-01T04:52:53;101063.38;;;9.82;45.92
64841;BME280;51307;52.162;7.560;2023-05-01T04:55:19;101062.50;;;9.82;45.33
64841;BME280;51307;52.162;7.560;2023-05-01T04:57:44;101060.06;;;9.88;45.46
64841;BME280;51307;52.162;7.560;2023-05-01T05:00:10;101065.03;;;9.83;45.52
64841;BME280;51307;52.162;7.560;2023-05-01T05:02:36;101064.88;;;9.85;46.46
64841;BME280;51307;52.162;7.560;2023-05-01T05:05:02;101065.91;;;10.02;45.59
64841;BME280;51307;52.162;7.560;2023-05-01T05:07:27;101067.13;;;10.07;45.88
64841;BME280;51307;52.162;7.560;2023-05-01T05:09:53;101060.38;;;10.13;45.50
64841;BME280;51307;52.162;7.560;2023-05-01T05:12:18;101060.44;;;10.39;44.59
64841;BME280;51307;52.162;7.560;2023-05-01T05:14:44;101066.22;;;10.17;45.20
64841;BME280;51307;52.162;7.560;2023-05-01T05:17:09;101060.22;;;10.33;44.71
64841;BME280;51307;52.162;7.560;2023-05-01T05:19:35;101063.03;;;10.31;44.91
64841;BME280;51307;52.162;7.560;2023-05-01T05:22:01;101055.69;;;10.33;44.86
64841;BME280;51307;52.162;7.560;2023-05-01T05:24:27;101060.38;;;10.31;45.50
64841;BME280;51307;52.162;7.560;2023-05-01T05:26:53;101051.94;;;10.54;44.82
64841;BME280;51307;52.162;7.560;2023-05-01T05:29:19;101062.41;;;10.47;44.63
64841;BME280;51307;52.162;7.560;2023-05-01T05:31:44;101060.38;;;10.85;43.55
64841;BME280;51307;52.162;7.560;2023-05-01T05:34:10;101063.47;;;10.72;44.16
64841;BME280;51307;52.162;7.560;2023-05-01T05:36:35;101055.22;;;10.92;43.46
64841;BME280;51307;52.162;7.560;2023-05-01T05:39:02;101055.22;;;10.92;43.14
64841;BME280;51307;52.162;7.560;2023-05-01T05:41:27;101057.75;;;10.93;43.57
64841;BME280;51307;52.162;7.560;2023-05-01T05:43:53;101054.63;;;10.98;43.11
64841;BME280;51307;52.162;7.560;2023-05-01T05:46:18;101057.56;;;11.13;42.74
64841;BME280;51307;52.162;7.560;2023-05-01T05:48:44;101053.72;;;11.16;42.91
64841;BME280;51307;52.162;7.560;2023-05-01T05:51:10;101055.47;;;11.25;42.83
64841;BME280;51307;52.162;7.560;2023-05-01T05:53:36;101046.25;;;11.01;43.91
64841;BME280;51307;52.162;7.560;2023-05-01T05:56:02;101043.41;;;11.03;43.76
64841;BME280;51307;52.162;7.560;2023-05-01T05:58:27;101045.25;;;11.28;43.07
64841;BME280;51307;52.162;7.560;2023-05-01T06:00:53;101037.78;;;11.40;42.62
64841;BME280;51307;52.162;7.560;2023-05-01T06:03:20;101045.03;;;11.22;42.71
64841;BME280;51307;52.162;7.560;2023-05-01T06:05:46;101042.50;;;11.47;42.29
64841;BME280;51307;52.162;7.560;2023-05-01T06:08:11;101045.06;;;11.56;42.25
64841;BME280;51307;52.162;7.560;2023-05-01T06:10:41;101047.22;;;11.53;42.32
64841;BME280;51307;52.162;7.560;2023-05-01T06:13:07;101044.84;;;11.50;42.24
64841;BME280;51307;52.162;7.560;2023-05-01T06:15:35;101042.19;;;11.50;42.19
64841;BME280;51307;52.162;7.560;2023-05-01T06:18:00;101040.28;;;11.42;42.19
64841;BME280;51307;52.162;7.560;2023-05-01T06:20:26;101040.31;;;11.50;42.40
64841;BME280;51307;52.162;7.560;2023-05-01T06:22:52;101043.22;;;11.22;42.99
64841;BME280;51307;52.162;7.560;2023-05-01T06:25:17;101039.31;;;11.43;43.06
64841;BME280;51307;52.162;7.560;2023-05-01T06:27:43;101037.34;;;11.53;42.66
64841;BME280;51307;52.162;7.560;2023-05-01T06:30:09;101038.34;;;11.52;42.58
64841;BME280;51307;52.162;7.560;2023-05-01T06:32:36;101034.31;;;11.48;43.02
64841;BME280;51307;52.162;7.560;2023-05-01T06:35:01;101033.91;;;11.69;42.94
64841;BME280;51307;52.162;7.560;2023-05-01T06:37:27;101033.00;;;11.60;43.31
64841;BME280;51307;52.162;7.560;2023-05-01T06:39:52;101030.50;;;11.59;43.00
64841;BME280;51307;52.162;7.560;2023-05-01T06:42:17;101030.19;;;11.70;42.72
64841;BME280;51307;52.162;7.560;2023-05-01T06:44:45;101030.72;;;11.74;42.73
64841;BME280;51307;52.162;7.560;2023-05-01T06:47:11;101027.91;;;11.84;42.54
64841;BME280;51307;52.162;7.560;2023-05-01T06:49:36;101029.91;;;11.82;42.92
64841;BME280;51307;52.162;7.560;2023-05-01T06:52:02;101035.50;;;11.97;42.47
64841;BME280;51307;52.162;7.560;2023-05-01T06:54:27;101033.84;;;12.04;42.64
64841;BME280;51307;52.162;7.560;2023-05-01T06:56:53;101033.66;;;11.89;42.34
64841;BME280;51307;52.162;7.560;2023-05-01T06:59:18;101033.31;;;12.00;42.00
64841;BME280;51307;52.162;7.560;2023-05-01T07:01:44;101028.47;;;12.04;43.02
64841;BME280;51307;52.162;7.560;2023-05-01T07:04:09;101028.81;;;12.01;42.43
64841;BME280;51307;52.162;7.560;2023-05-01T07:06:35;101033.31;;;12.00;42.08
64841;BME280;51307;52.162;7.560;2023-05-01T07:09:01;101033.00;;;11.95;42.38
64841;BME280;51307;52.162;7.560;2023-05-01T07:11:27;101028.97;;;11.91;42.73
64841;BME280;51307;52.162;7.560;2023-05-01T07:13:53;101025.63;;;12.05;42.77
64841;BME280;51307;52.162;7.560;2023-05-01T07:16:19;101025.31;;;12.08;43.17
64841;BME280;51307;52.162;7.560;2023-05-01T07:18:45;101022.25;;;11.87;43.66
64841;BME280;51307;52.162;7.560;2023-05-01T07:21:10;101018.13;;;12.17;43.43
64841;BME280;51307;52.162;7.560;2023-05-01T07:23:36;101018.63;;;12.21;43.48
64841;BME280;51307;52.162;7.560;2023-05-01T07:26:02;101020.50;;;12.28;43.38
64841;BME280;51307;52.162;7.560;2023-05-01T07:28:29;101021.31;;;12.37;42.94
64841;BME280;51307;52.162;7.560;2023-05-01T07:30:54;101024.84;;;12.38;43.32
64841;BME280;51307;52.162;7.560;2023-05-01T07:33:21;101034.22;;;12.42;43.70
64841;BME280;51307;52.162;7.560;2023-05-01T07:35:47;101030.06;;;12.56;42.73
64841;BME280;51307;52.162;7.560;2023-05-01T07:38:14;101028.88;;;12.58;42.44
64841;BME280;51307;52.162;7.560;2023-05-01T07:40:40;101025.03;;;12.61;42.73
64841;BME280;51307;52.162;7.560;2023-05-01T07:43:06;101021.00;;;12.65;43.23
64841;BME280;51307;52.162;7.560;2023-05-01T07:45:36;101029.53;;;12.69;43.15
64841;BME280;51307;52.162;7.560;2023-05-01T07:48:02;101024.31;;;12.84;43.39
64841;BME280;51307;52.162;7.560;2023-05-01T07:50:27;101025.38;;;12.74;44.40
64841;BME280;51307;52.162;7.560;2023-05-01T07:52:53;101016.78;;;12.87;44.18
64841;BME280;51307;52.162;7.560;2023-05-01T07:55:20;101018.09;;;13.00;44.00
64841;BME280;51307;52.162;7.560;2023-05-01T07:57:46;101017.94;;;13.01;43.91
64841;BME280;51307;52.162;7.560;2023-05-01T08:00:12;101016.25;;;13.00;43.96
64841;BME280;51307;52.162;7.560;2023-05-01T08:02:38;101018.94;;;13.00;43.54
64841;BME280;51307;52.162;7.560;2023-05-01T08:05:05;101013.91;;;13.05;43.96
64841;BME280;51307;52.162;7.560;2023-05-01T08:07:30;101014.38;;;13.17;43.91
64841;BME280;51307;52.162;7.560;2023-05-01T08:09:56;101013.06;;;13.13;44.44
64841;BME280;51307;52.162;7.560;2023-05-01T08:12:21;101014.06;;;13.12;43.94
64841;BME280;51307;52.162;7.560;2023-05-01T08:14:47;101009.88;;;13.09;44.10
64841;BME280;51307;52.162;7.560;2023-05-01T08:17:12;101008.69;;;13.20;44.51
64841;BME280;51307;52.162;7.560;2023-05-01T08:19:38;101014.22;;;13.27;45.23
64841;BME280;51307;52.162;7.560;2023-05-01T08:22:03;101008.13;;;13.33;44.57
64841;BME280;51307;52.162;7.560;2023-05-01T08:24:29;101007.09;;;13.42;44.39
64841;BME280;51307;52.162;7.560;2023-05-01T08:26:55;101008.59;;;13.45;45.02
64841;BME280;51307;52.162;7.560;2023-05-01T08:29:21;101004.19;;;13.52;44.87
64841;BME280;51307;52.162;7.560;2023-05-01T08:31:46;101000.44;;;13.61;44.46
64841;BME280;51307;52.162;7.560;2023-05-01T08:34:12;101000.50;;;13.53;45.13
64841;BME280;51307;52.162;7.560;2023-05-01T08:36:37;100996.91;;;13.69;44.93
64841;BME280;51307;52.162;7.560;2023-05-01T08:39:03;100996.03;;;13.77;44.10
64841;BME280;51307;52.162;7.560;2023-05-01T08:41:31;100997.78;;;13.93;44.29
64841;BME280;51307;52.162;7.560;2023-05-01T08:43:59;100993.72;;;13.97;43.26
64841;BME280;51307;52.162;7.560;2023-05-01T08:46:47;100998.06;;;13.98;43.14
64841;BME280;51307;52.162;7.560;2023-05-01T08:49:16;100989.34;;;14.19;42.99
64841;BME280;51307;52.162;7.560;2023-05-01T08:51:45;100986.09;;;14.09;43.59
64841;BME280;51307;52.162;7.560;2023-05-01T08:54:14;100999.63;;;14.16;43.61
64841;BME280;51307;52.162;7.560;2023-05-01T08:56:42;100986.09;;;14.32;41.84
64841;BME280;51307;52.162;7.560;2023-05-01T08:59:10;100990.75;;;14.38;41.87
64841;BME280;51307;52.162;7.560;2023-05-01T09:01:36;100982.59;;;14.46;43.12
64841;BME280;51307;52.162;7.560;2023-05-01T09:04:03;100980.13;;;14.60;43.38
64841;BME280;51307;52.162;7.560;2023-05-01T09:06:31;100989.41;;;14.57;42.87
64841;BME280;51307;52.162;7.560;2023-05-01T09:08:57;100974.19;;;14.50;41.98
64841;BME280;51307;52.162;7.560;2023-05-01T09:11:23;100977.38;;;14.68;42.70
64841;BME280;51307;52.162;7.560;2023-05-01T09:13:51;100977.84;;;14.72;43.62
64841;BME280;51307;52.162;7.560;2023-05-01T09:16:17;100969.31;;;14.83;43.68
64841;BME280;51307;52.162;7.560;2023-05-01T09:18:42;100971.25;;;14.89;41.49
64841;BME280;51307;52.162;7.560;2023-05-01T09:21:08;100965.63;;;14.99;42.05
64841;BME280;51307;52.162;7.560;2023-05-01T09:23:34;100961.69;;;15.02;41.76
64841;BME280;51307;52.162;7.560;2023-05-01T09:26:05;100951.47;;;14.97;42.03
64841;BME280;51307;52.162;7.560;2023-05-01T09:28:45;100952.13;;;15.14;41.96
64841;BME280;51307;52.162;7.560;2023-05-01T09:31:28;100953.34;;;15.11;42.59
64841;BME280;51307;52.162;7.560;2023-05-01T09:33:59;100957.06;;;15.10;42.11
64841;BME280;51307;52.162;7.560;2023-05-01T09:36:29;100959.47;;;15.20;42.57
64841;BME280;51307;52.162;7.560;2023-05-01T09:38:56;100960.66;;;15.18;40.94
64841;BME280;51307;52.162;7.560;2023-05-01T09:41:22;100957.22;;;15.24;40.39
64841;BME280;51307;52.162;7.560;2023-05-01T09:43:50;100953.97;;;14.99;40.59
64841;BME280;51307;52.162;7.560;2023-05-01T09:46:16;100955.09;;;15.34;41.64
64841;BME280;51307;52.162;7.560;2023-05-01T09:48:58;100940.22;;;15.53;41.74
64841;BME280;51307;52.162;7.560;2023-05-01T09:51:25;100944.41;;;15.56;41.21
64841;BME280;51307;52.162;7.560;2023-05-01T09:53:58;100936.44;;;15.69;39.33
64841;BME280;51307;52.162;7.560;2023-05-01T09:56:29;100940.06;;;15.76;41.17
64841;BME280;51307;52.162;7.560;2023-05-01T09:58:58;100939.53;;;15.88;40.16
64841;BME280;51307;52.162;7.560;2023-05-01T10:01:44;100941.59;;;15.86;39.10
64841;BME280;51307;52.162;7.560;2023-05-01T10:04:11;100940.19;;;15.90;39.26
64841;BME280;51307;52.162;7.560;2023-05-01T10:06:38;100943.84;;;16.04;39.16
64841;BME280;51307;52.162;7.560;2023-05-01T10:09:05;100937.88;;;15.87;38.86
64841;BME280;51307;52.162;7.560;2023-05-01T10:11:48;100940.94;;;15.84;38.93
64841;BME280;51307;52.162;7.560;2023-05-01T10:14:13;100941.06;;;15.97;38.99
64841;BME280;51307;52.162;7.560;2023-05-01T10:16:39;100932.34;;;15.95;38.59
64841;BME280;51307;52.162;7.560;2023-05-01T10:19:04;100932.63;;;16.00;39.42
64841;BME280;51307;52.162;7.560;2023-05-01T10:21:31;100930.53;;;16.02;40.04
64841;BME280;51307;52.162;7.560;2023-05-01T10:24:02;100935.88;;;16.17;40.09
64841;BME280;51307;52.162;7.560;2023-05-01T10:26:32;100932.34;;;16.17;39.87
64841;BME280;51307;52.162;7.560;2023-05-01T10:28:59;100937.03;;;16.08;37.90
64841;BME280;51307;52.162;7.560;2023-05-01T10:31:26;100927.97;;;16.16;38.73
64841;BME280;51307;52.162;7.560;2023-05-01T10:33:54;100928.84;;;16.23;38.53
64841;BME280;51307;52.162;7.560;2023-05-01T10:36:38;100936.50;;;16.41;38.32
64841;BME280;51307;52.162;7.560;2023-05-01T10:39:05;100934.50;;;16.50;38.82
64841;BME280;51307;52.162;7.560;2023-05-01T10:44:23;100926.03;;;16.31;38.17
64841;BME280;51307;52.162;7.560;2023-05-01T10:46:49;100926.72;;;16.40;38.14
64841;BME280;51307;52.162;7.560;2023-05-01T10:49:15;100928.31;;;16.06;37.78
64841;BME280;51307;52.162;7.560;2023-05-01T10:54:31;100912.75;;;16.36;37.54
64841;BME280;51307;52.162;7.560;2023-05-01T10:57:02;100919.09;;;16.43;37.81
64841;BME280;51307;52.162;7.560;2023-05-01T11:02:25;100911.41;;;16.47;37.43
64841;BME280;51307;52.162;7.560;2023-05-01T11:04:51;100917.56;;;16.62;36.97
64841;BME280;51307;52.162;7.560;2023-05-01T11:07:19;100911.22;;;16.77;37.76
64841;BME280;51307;52.162;7.560;2023-05-01T11:12:15;100902.34;;;16.90;38.76
64841;BME280;51307;52.162;7.560;2023-05-01T11:15:00;100909.69;;;17.03;39.01
64841;BME280;51307;52.162;7.560;2023-05-01T11:20:45;100907.44;;;17.13;37.96
64841;BME280;51307;52.162;7.560;2023-05-01T11:22:59;100908.19;;;16.93;37.05
64841;BME280;51307;52.162;7.560;2023-05-01T11:25:27;100897.91;;;17.24;38.92
64841;BME280;51307;52.162;7.560;2023-05-01T11:27:58;100895.56;;;17.07;38.06
64841;BME280;51307;52.162;7.560;2023-05-01T11:30:24;100893.94;;;17.20;37.88
64841;BME280;51307;52.162;7.560;2023-05-01T11:32:51;100894.63;;;17.28;38.28
64841;BME280;51307;52.162;7.560;2023-05-01T11:35:21;100887.81;;;17.39;37.90
64841;BME280;51307;52.162;7.560;2023-05-01T11:37:48;100885.88;;;17.33;38.82
64841;BME280;51307;52.162;7.560;2023-05-01T11:40:31;100881.59;;;17.39;38.24
64841;BME280;51307;52.162;7.560;2023-05-01T11:43:02;100887.84;;;17.46;37.34
64841;BME280;51307;52.162;7.560;2023-05-01T11:45:29;100887.44;;;17.49;37.15
64841;BME280;51307;52.162;7.560;2023-05-01T11:47:56;100880.78;;;17.52;36.75
64841;BME280;51307;52.162;7.560;2023-05-01T11:50:34;100882.41;;;17.39;36.93
64841;BME280;51307;52.162;7.560;2023-05-01T11:53:00;100883.25;;;17.46;37.00
64841;BME280;51307;52.162;7.560;2023-05-01T11:55:33;100883.81;;;17.28;35.89
64841;BME280;51307;52.162;7.560;2023-05-01T11:58:00;100877.88;;;17.53;35.81
64841;BME280;51307;52.162;7.560;2023-05-01T12:00:29;100871.44;;;17.54;35.71
64841;BME280;51307;52.162;7.560;2023-05-01T12:03:02;100860.63;;;17.61;37.50
64841;BME280;51307;52.162;7.560;2023-05-01T12:05:30;100871.25;;;17.69;36.33
64841;BME280;51307;52.162;7.560;2023-05-01T12:10:32;100869.78;;;17.80;38.73
64841;BME280;51307;52.162;7.560;2023-05-01T12:12:58;100859.19;;;17.98;38.56
64841;BME280;51307;52.162;7.560;2023-05-01T12:15:24;100860.88;;;18.00;36.61
64841;BME280;51307;52.162;7.560;2023-05-01T12:17:49;100859.63;;;18.09;35.60
64841;BME280;51307;52.162;7.560;2023-05-01T12:20:15;100860.00;;;18.19;35.73
64841;BME280;51307;52.162;7.560;2023-05-01T12:22:48;100856.91;;;18.16;33.15
64841;BME280;51307;52.162;7.560;2023-05-01T12:25:15;100857.31;;;18.26;33.67
64841;BME280;51307;52.162;7.560;2023-05-01T12:27:44;100863.56;;;18.13;32.06
64841;BME280;51307;52.162;7.560;2023-05-01T12:30:10;100850.63;;;18.22;31.96
64841;BME280;51307;52.162;7.560;2023-05-01T12:32:36;100851.28;;;18.24;33.86
64841;BME280;51307;52.162;7.560;2023-05-01T12:35:20;100848.16;;;18.27;34.74
64841;BME280;51307;52.162;7.560;2023-05-01T12:37:45;100852.53;;;18.28;33.63
64841;BME280;51307;52.162;7.560;2023-05-01T12:40:15;100845.22;;;18.22;32.86
64841;BME280;51307;52.162;7.560;2023-05-01T12:42:41;100858.56;;;18.23;33.58
64841;BME280;51307;52.162;7.560;2023-05-01T12:45:07;100855.25;;;18.14;33.33
64841;BME280;51307;52.162;7.560;2023-05-01T12:47:35;100848.34;;;18.19;33.37
64841;BME280;51307;52.162;7.560;2023-05-01T12:50:02;100847.94;;;18.22;33.85
64841;BME280;51307;52.162;7.560;2023-05-01T12:52:28;100844.41;;;18.21;33.25
64841;BME280;51307;52.162;7.560;2023-05-01T12:55:04;100846.06;;;18.42;34.00
64841;BME280;51307;52.162;7.560;2023-05-01T12:57:31;100847.09;;;18.55;34.12
64841;BME280;51307;52.162;7.560;2023-05-01T13:00:01;100844.38;;;18.55;33.97
64841;BME280;51307;52.162;7.560;2023-05-01T13:02:31;100837.31;;;18.40;34.09
64841;BME280;51307;52.162;7.560;2023-05-01T13:05:08;100838.94;;;18.61;34.44
64841;BME280;51307;52.162;7.560;2023-05-01T13:07:35;100831.66;;;18.55;34.25
64841;BME280;51307;52.162;7.560;2023-05-01T13:10:01;100827.72;;;18.44;33.51
64841;BME280;51307;52.162;7.560;2023-05-01T13:12:29;100828.28;;;18.67;35.73
64841;BME280;51307;52.162;7.560;2023-05-01T13:14:55;100823.94;;;18.59;34.63
64841;BME280;51307;52.162;7.560;2023-05-01T13:20:01;100816.81;;;18.71;35.11
64841;BME280;51307;52.162;7.560;2023-05-01T13:24:57;100814.28;;;18.83;34.59
64841;BME280;51307;52.162;7.560;2023-05-01T13:27:22;100815.50;;;18.87;34.15
64841;BME280;51307;52.162;7.560;2023-05-01T13:29:57;100816.69;;;18.98;34.04
64841;BME280;51307;52.162;7.560;2023-05-01T13:32:24;100810.25;;;18.99;34.21
64841;BME280;51307;52.162;7.560;2023-05-01T13:34:51;100811.09;;;18.93;33.62